createdAt,value
2019-05-16T00:00:11.151Z,90.60
2019-05-16T00:02:39.696Z,90.20
2019-05-16T00:05:09.005Z,90.40
2019-05-16T00:07:38.876Z,91.00
2019-05-16T00:10:08.521Z,90.50
2019-05-16T00:12:39.623Z,91.00
2019-05-16T00:15:09.042Z,91.30
2019-05-16T00:17:38.650Z,91.10
2019-05-16T00:20:09.314Z,90.80
2019-05-16T00:22:39.325Z,91.10
2019-05-16T00:25:09.313Z,91.00
2019-05-16T00:27:38.687Z,90.90
2019-05-16T00:30:08.831Z,90.80
2019-05-16T00:32:39.052Z,90.60
2019-05-16T00:35:09.152Z,90.70
2019-05-16T00:37:39.095Z,91.00
2019-05-16T00:40:08.588Z,91.00
2019-05-16T00:42:39.002Z,91.00
2019-05-16T00:45:09.325Z,90.90
2019-05-16T00:47:38.947Z,91.20
2019-05-16T00:50:08.840Z,91.50
2019-05-16T00:52:39.511Z,91.70
2019-05-16T00:55:08.605Z,91.60
2019-05-16T00:57:38.981Z,91.70
2019-05-16T01:00:10.813Z,91.80
2019-05-16T01:02:39.292Z,91.60
2019-05-16T01:05:08.742Z,91.70
2019-05-16T01:07:39.149Z,91.60
2019-05-16T01:10:09.207Z,91.50
2019-05-16T01:12:39.139Z,91.80
2019-05-16T01:15:08.697Z,91.90
2019-05-16T01:17:39.171Z,92.00
2019-05-16T01:20:08.559Z,91.20
2019-05-16T01:22:38.444Z,91.60
2019-05-16T01:25:09.543Z,91.60
2019-05-16T01:27:38.736Z,92.30
2019-05-16T01:30:10.826Z,92.10
2019-05-16T01:32:39.511Z,92.20
2019-05-16T01:35:08.511Z,92.40
2019-05-16T01:37:38.351Z,92.30
2019-05-16T01:40:08.378Z,92.10
2019-05-16T01:42:38.561Z,92.30
2019-05-16T01:45:08.456Z,91.50
2019-05-16T01:47:39.284Z,92.30
2019-05-16T01:50:08.726Z,92.70
2019-05-16T01:52:38.239Z,92.30
2019-05-16T01:55:08.267Z,92.10
2019-05-16T01:57:39.086Z,93.10
2019-05-16T02:00:08.753Z,93.00
2019-05-16T02:02:38.508Z,93.10
2019-05-16T02:05:08.602Z,93.80
2019-05-16T02:07:38.825Z,94.00
2019-05-16T02:10:08.661Z,94.00
2019-05-16T02:12:38.444Z,94.60
2019-05-16T02:15:09.863Z,94.00
2019-05-16T02:17:38.686Z,94.00
2019-05-16T02:20:08.771Z,94.20
2019-05-16T02:22:38.898Z,94.50
2019-05-16T02:25:10.183Z,94.30
2019-05-16T02:27:41.069Z,94.30
2019-05-16T02:30:12.527Z,94.20
2019-05-16T02:32:41.735Z,94.50
2019-05-16T02:35:11.733Z,94.80
2019-05-16T02:37:42.325Z,94.80
2019-05-16T02:40:12.290Z,94.90
2019-05-16T02:42:42.183Z,95.30
2019-05-16T02:45:11.559Z,95.80
2019-05-16T02:47:42.406Z,96.20
2019-05-16T02:50:12.458Z,96.10
2019-05-16T02:52:41.514Z,96.90
2019-05-16T02:55:12.199Z,96.80
2019-05-16T02:57:41.844Z,96.80
2019-05-16T03:00:12.414Z,96.60
2019-05-16T03:02:42.136Z,96.60
2019-05-16T03:05:12.686Z,96.60
2019-05-16T03:07:47.141Z,96.90
2019-05-16T03:10:14.168Z,96.90
2019-05-16T03:12:43.729Z,97.20
2019-05-16T03:15:13.062Z,97.00
2019-05-16T03:17:43.968Z,96.90
2019-05-16T03:20:13.995Z,97.00
2019-05-16T03:22:43.857Z,97.10
2019-05-16T03:25:12.340Z,97.30
2019-05-16T03:27:41.574Z,97.40
2019-05-16T03:30:15.433Z,97.20
2019-05-16T03:32:45.029Z,97.90
2019-05-16T03:35:15.200Z,98.50
2019-05-16T03:37:54.914Z,98.60
2019-05-16T03:40:14.465Z,99.60
2019-05-16T03:42:42.914Z,99.60
2019-05-16T03:45:14.558Z,99.20
2019-05-16T03:47:43.178Z,99.70
2019-05-16T03:50:12.021Z,99.90
2019-05-16T03:52:43.711Z,99.90
2019-05-16T03:55:11.528Z,99.90
2019-05-16T03:57:41.703Z,99.90
2019-05-16T04:00:12.369Z,99.90
2019-05-16T04:02:45.223Z,99.90
2019-05-16T04:05:11.728Z,99.90
2019-05-16T04:07:41.353Z,99.90
2019-05-16T04:10:11.608Z,99.90
2019-05-16T04:12:42.070Z,99.90
2019-05-16T04:15:11.575Z,99.90
2019-05-16T04:17:41.240Z,99.90
2019-05-16T04:20:11.552Z,99.90
2019-05-16T04:22:41.012Z,99.90
2019-05-16T04:25:11.258Z,99.90
2019-05-16T04:27:41.619Z,99.90
2019-05-16T04:30:11.927Z,99.90
2019-05-16T04:32:41.825Z,99.90
2019-05-16T04:35:11.580Z,99.90
2019-05-16T04:37:42.328Z,99.90
2019-05-16T04:40:11.996Z,99.90
2019-05-16T04:42:41.878Z,99.90
2019-05-16T04:45:11.991Z,99.90
2019-05-16T04:47:41.581Z,99.90
2019-05-16T04:50:11.868Z,99.90
2019-05-16T04:52:41.779Z,99.90
2019-05-16T04:55:11.985Z,99.90
2019-05-16T04:57:42.190Z,99.90
2019-05-16T05:00:11.895Z,99.90
2019-05-16T05:02:41.879Z,99.90
2019-05-16T05:05:12.554Z,99.90
2019-05-16T05:07:41.444Z,99.90
2019-05-16T05:10:11.623Z,99.90
2019-05-16T05:12:40.993Z,99.90
2019-05-16T05:15:11.533Z,99.90
2019-05-16T05:17:41.179Z,99.90
2019-05-16T05:20:11.091Z,99.90
2019-05-16T05:22:40.035Z,99.90
2019-05-16T05:25:10.875Z,99.90
2019-05-16T05:27:41.244Z,99.90
2019-05-16T05:30:10.753Z,99.90
2019-05-16T05:32:41.326Z,99.90
2019-05-16T05:35:10.716Z,99.90
2019-05-16T05:37:40.959Z,99.90
2019-05-16T05:40:10.936Z,99.90
2019-05-16T05:42:40.421Z,99.90
2019-05-16T05:45:11.054Z,99.90
2019-05-16T05:47:40.450Z,99.90
2019-05-16T05:50:12.159Z,99.90
2019-05-16T05:52:41.375Z,99.90
2019-05-16T05:55:10.679Z,99.90
2019-05-16T05:57:40.385Z,99.90
2019-05-16T06:00:10.250Z,99.90
2019-05-16T06:02:40.300Z,99.90
2019-05-16T06:05:10.596Z,99.90
2019-05-16T06:07:40.460Z,99.90
2019-05-16T06:10:10.639Z,99.90
2019-05-16T06:12:41.112Z,99.90
2019-05-16T06:15:12.805Z,99.90
2019-05-16T06:17:40.718Z,99.90
2019-05-16T06:20:14.404Z,99.90
2019-05-16T06:22:40.285Z,99.90
2019-05-16T06:25:13.190Z,99.90
2019-05-16T06:27:40.622Z,99.90
2019-05-16T06:30:11.389Z,99.90
2019-05-16T06:32:40.294Z,99.90
2019-05-16T06:35:09.705Z,99.90
2019-05-16T06:37:40.571Z,99.90
2019-05-16T06:40:10.916Z,99.90
2019-05-16T06:42:40.335Z,99.90
2019-05-16T06:45:10.401Z,99.90
2019-05-16T06:47:39.868Z,99.90
2019-05-16T06:50:11.403Z,99.90
2019-05-16T06:52:40.843Z,99.90
2019-05-16T06:55:10.263Z,99.90
2019-05-16T06:57:40.852Z,99.90
2019-05-16T07:00:10.958Z,99.90
2019-05-16T07:02:40.938Z,99.90
2019-05-16T07:05:10.368Z,99.90
2019-05-16T07:07:40.421Z,99.90
2019-05-16T07:10:09.907Z,99.90
2019-05-16T07:12:41.135Z,99.90
2019-05-16T07:15:12.430Z,99.90
2019-05-16T07:17:41.375Z,99.90
2019-05-16T07:20:10.729Z,99.90
2019-05-16T07:22:40.629Z,99.90
2019-05-16T07:25:10.684Z,99.90
2019-05-16T07:27:40.182Z,99.80
2019-05-16T07:30:11.400Z,99.50
2019-05-16T07:32:40.423Z,99.80
2019-05-16T07:35:09.737Z,99.90
2019-05-16T07:37:40.013Z,99.90
2019-05-16T07:40:19.339Z,99.90
2019-05-16T07:42:40.434Z,99.90
2019-05-16T07:45:11.110Z,99.90
2019-05-16T07:47:40.341Z,99.90
2019-05-16T07:50:10.403Z,99.90
2019-05-16T07:52:40.238Z,99.90
2019-05-16T07:55:10.793Z,99.90
2019-05-16T07:57:40.072Z,99.90
2019-05-16T08:00:10.291Z,99.90
2019-05-16T08:02:40.307Z,99.90
2019-05-16T08:05:10.396Z,99.90
2019-05-16T08:07:40.708Z,99.90
2019-05-16T08:10:10.605Z,99.90
2019-05-16T08:12:40.651Z,99.90
2019-05-16T08:15:11.485Z,99.90
2019-05-16T08:17:44.113Z,99.90
2019-05-16T08:22:41.602Z,99.90
2019-05-16T08:25:11.063Z,99.90
2019-05-16T08:27:41.405Z,99.90
2019-05-16T08:30:11.473Z,99.90
2019-05-16T08:32:42.290Z,99.90
2019-05-16T08:35:11.270Z,99.90
2019-05-16T08:37:46.078Z,99.90
2019-05-16T08:40:11.492Z,99.90
2019-05-16T08:42:41.571Z,99.30
2019-05-16T08:45:12.452Z,98.60
2019-05-16T08:47:42.403Z,98.90
2019-05-16T08:50:14.403Z,98.30
2019-05-16T08:52:44.007Z,98.20
2019-05-16T08:55:13.458Z,98.70
2019-05-16T08:57:42.358Z,98.40
2019-05-16T09:00:16.896Z,99.10
2019-05-16T09:02:43.531Z,98.60
2019-05-16T09:05:13.644Z,98.50
2019-05-16T09:07:42.824Z,98.40
2019-05-16T09:10:31.316Z,99.90
2019-05-16T09:10:45.702Z,98.40
2019-05-16T09:12:41.966Z,98.40
2019-05-16T09:15:10.700Z,98.70
2019-05-16T09:17:39.150Z,98.40
2019-05-16T09:20:07.857Z,98.90
2019-05-16T09:22:37.713Z,98.40
2019-05-16T09:25:08.282Z,99.40
2019-05-16T09:27:38.114Z,99.90
2019-05-16T09:30:08.020Z,99.40
2019-05-16T09:32:37.092Z,99.90
2019-05-16T09:35:08.957Z,99.90
2019-05-16T09:37:37.921Z,99.70
2019-05-16T09:40:08.136Z,99.90
2019-05-16T09:42:37.315Z,99.90
2019-05-16T09:45:07.676Z,99.90
2019-05-16T09:47:38.986Z,99.90
2019-05-16T09:50:08.719Z,99.90
2019-05-16T09:52:37.282Z,99.90
2019-05-16T09:55:07.040Z,99.90
2019-05-16T09:57:37.729Z,99.90
2019-05-16T10:00:09.208Z,98.90
2019-05-16T10:02:37.739Z,99.20
2019-05-16T10:05:13.467Z,98.90
2019-05-16T10:07:39.301Z,99.30
2019-05-16T10:10:08.330Z,99.00
2019-05-16T10:12:37.151Z,99.00
2019-05-16T10:15:07.536Z,98.50
2019-05-16T10:17:37.029Z,98.70
2019-05-16T10:20:08.937Z,99.70
2019-05-16T10:22:37.506Z,98.90
2019-05-16T10:25:06.833Z,99.40
2019-05-16T10:27:36.770Z,98.90
2019-05-16T10:30:08.470Z,98.50
2019-05-16T10:32:39.816Z,98.70
2019-05-16T10:35:08.087Z,97.90
2019-05-16T10:37:37.552Z,98.10
2019-05-16T10:40:07.505Z,98.50
2019-05-16T10:42:37.968Z,98.00
2019-05-16T10:45:09.026Z,97.90
2019-05-16T10:47:37.511Z,97.50
2019-05-16T10:50:07.719Z,97.60
2019-05-16T10:52:36.810Z,98.10
2019-05-16T10:55:09.260Z,97.30
2019-05-16T10:57:38.087Z,97.20
2019-05-16T11:00:18.017Z,97.00
2019-05-16T11:02:38.601Z,97.40
2019-05-16T11:05:25.129Z,97.00
2019-05-16T11:07:37.725Z,97.10
2019-05-16T11:10:07.807Z,97.00
2019-05-16T11:12:49.678Z,98.10
2019-05-16T11:15:11.351Z,98.50
2019-05-16T11:17:39.376Z,97.90
2019-05-16T11:20:08.224Z,97.50
2019-05-16T11:22:37.160Z,97.50
2019-05-16T11:25:21.139Z,97.90
2019-05-16T11:27:38.323Z,98.30
2019-05-16T11:30:07.680Z,97.10
2019-05-16T11:32:37.399Z,97.10
2019-05-16T11:35:08.313Z,97.10
2019-05-16T11:37:37.740Z,97.00
2019-05-16T11:40:08.538Z,96.90
2019-05-16T11:42:37.872Z,96.70
2019-05-16T11:45:10.546Z,97.90
2019-05-16T11:47:39.394Z,97.10
2019-05-16T11:50:09.181Z,97.40
2019-05-16T11:52:40.723Z,97.70
2019-05-16T11:55:08.470Z,96.90
2019-05-16T11:57:37.949Z,97.30
2019-05-16T12:00:09.005Z,97.40
2019-05-16T12:02:39.020Z,96.80
2019-05-16T12:05:08.406Z,96.70
2019-05-16T12:07:43.832Z,96.50
2019-05-16T12:10:08.274Z,97.30
2019-05-16T12:12:37.165Z,97.00
2019-05-16T12:15:07.949Z,97.70
2019-05-16T12:17:36.701Z,97.60
2019-05-16T12:20:07.789Z,96.80
2019-05-16T12:22:37.642Z,97.00
2019-05-16T12:25:08.118Z,96.20
2019-05-16T12:27:42.400Z,96.60
2019-05-16T12:30:13.498Z,96.70
2019-05-16T12:32:41.395Z,97.20
2019-05-16T12:35:10.777Z,96.80
2019-05-16T12:37:39.262Z,96.40
2019-05-16T12:40:08.459Z,96.40
2019-05-16T12:42:36.954Z,96.60
2019-05-16T12:45:09.161Z,96.70
2019-05-16T12:47:37.862Z,96.40
2019-05-16T12:50:11.577Z,96.40
2019-05-16T12:52:40.290Z,97.10
2019-05-16T12:55:09.310Z,96.60
2019-05-16T12:57:38.822Z,96.20
2019-05-16T13:00:15.287Z,96.00
2019-05-16T13:02:39.152Z,96.30
2019-05-16T13:05:07.966Z,96.30
2019-05-16T13:07:37.692Z,96.30
2019-05-16T13:10:07.689Z,96.30
2019-05-16T13:12:37.849Z,96.40
2019-05-16T13:15:08.416Z,96.10
2019-05-16T13:17:37.412Z,96.40
2019-05-16T13:20:07.928Z,95.90
2019-05-16T13:22:38.384Z,96.10
2019-05-16T13:25:07.949Z,96.00
2019-05-16T13:27:37.264Z,96.40
2019-05-16T13:30:11.076Z,96.30
2019-05-16T13:32:39.690Z,96.00
2019-05-16T13:35:08.295Z,95.80
2019-05-16T13:37:37.042Z,95.50
2019-05-16T13:40:08.118Z,95.10
2019-05-16T13:42:37.106Z,95.50
2019-05-16T13:45:09.351Z,96.20
2019-05-16T13:47:38.013Z,96.00
2019-05-16T13:50:12.319Z,96.40
2019-05-16T13:52:38.494Z,96.00
2019-05-16T13:55:08.816Z,95.50
2019-05-16T13:57:37.746Z,96.00
2019-05-16T14:00:08.693Z,96.30
2019-05-16T14:02:38.060Z,96.10
2019-05-16T14:05:08.522Z,96.00
2019-05-16T14:07:37.671Z,95.70
2019-05-16T14:10:08.223Z,95.90
2019-05-16T14:12:36.938Z,96.00
2019-05-16T14:15:09.011Z,96.10
2019-05-16T14:17:37.575Z,95.90
2019-05-16T14:20:14.596Z,96.40
2019-05-16T14:22:38.691Z,95.00
2019-05-16T14:25:08.347Z,95.50
2019-05-16T14:27:38.268Z,95.60
2019-05-16T14:30:10.707Z,95.70
2019-05-16T14:32:42.543Z,95.80
2019-05-16T14:35:10.250Z,95.50
2019-05-16T14:37:38.709Z,96.10
2019-05-16T14:40:08.362Z,95.70
2019-05-16T14:42:38.858Z,95.50
2019-05-16T14:45:13.629Z,95.50
2019-05-16T14:47:42.205Z,95.40
2019-05-16T14:50:13.755Z,95.30
2019-05-16T14:52:41.116Z,95.40
2019-05-16T14:55:10.023Z,95.40
2019-05-16T14:57:38.571Z,95.50
2019-05-16T15:00:08.150Z,95.60
2019-05-16T15:02:38.466Z,95.50
2019-05-16T15:05:08.224Z,95.60
2019-05-16T15:07:37.479Z,95.50
2019-05-16T15:10:09.246Z,95.50
2019-05-16T15:12:37.939Z,95.30
2019-05-16T15:15:19.383Z,95.90
2019-05-16T15:17:38.590Z,95.70
2019-05-16T15:20:10.395Z,95.70
2019-05-16T15:22:38.879Z,95.80
2019-05-16T15:25:08.311Z,95.60
2019-05-16T15:27:37.453Z,95.60
2019-05-16T15:30:10.357Z,95.90
2019-05-16T15:32:38.925Z,95.90
2019-05-16T15:35:08.131Z,95.80
2019-05-16T15:37:37.387Z,96.50
2019-05-16T15:40:08.050Z,96.70
2019-05-16T15:42:37.336Z,95.90
2019-05-16T15:45:08.306Z,96.90
2019-05-16T15:47:37.696Z,95.80
2019-05-16T15:50:08.572Z,95.90
2019-05-16T15:52:38.336Z,95.20
2019-05-16T15:55:10.073Z,96.00
2019-05-16T15:57:39.085Z,96.00
2019-05-16T16:00:10.598Z,95.90
2019-05-16T16:02:39.531Z,96.00
2019-05-16T16:05:08.554Z,96.50
2019-05-16T16:07:38.016Z,96.00
2019-05-16T16:10:07.950Z,96.00
2019-05-16T16:12:37.571Z,95.60
2019-05-16T16:15:07.995Z,95.80
2019-05-16T16:17:38.112Z,95.80
2019-05-16T16:20:10.415Z,96.20
2019-05-16T16:22:37.964Z,95.90
2019-05-16T16:25:07.463Z,96.00
2019-05-16T16:27:35.991Z,96.50
2019-05-16T16:30:07.205Z,96.40
2019-05-16T16:32:37.937Z,96.60
2019-05-16T16:35:08.108Z,96.90
2019-05-16T16:37:37.725Z,96.90
2019-05-16T16:40:11.164Z,97.70
2019-05-16T16:42:37.484Z,97.10
2019-05-16T16:45:09.767Z,97.40
2019-05-16T16:47:38.269Z,96.90
2019-05-16T16:50:08.126Z,97.70
2019-05-16T16:52:37.941Z,97.40
2019-05-16T16:55:09.711Z,97.10
2019-05-16T16:57:38.732Z,99.30
2019-05-16T17:00:09.267Z,98.40
2019-05-16T17:02:37.858Z,98.10
2019-05-16T17:05:11.689Z,97.60
2019-05-16T17:07:37.542Z,97.60
2019-05-16T17:10:07.871Z,97.30
2019-05-16T17:12:41.408Z,97.50
2019-05-16T17:15:09.117Z,98.00
2019-05-16T17:17:37.960Z,98.20
2019-05-16T17:20:07.942Z,98.50
2019-05-16T17:22:37.690Z,98.50
2019-05-16T17:25:09.349Z,98.50
2019-05-16T17:27:37.989Z,98.90
2019-05-16T17:30:16.869Z,99.30
2019-05-16T17:32:45.023Z,99.10
2019-05-16T17:35:18.355Z,99.90
2019-05-16T17:37:46.680Z,99.90
2019-05-16T17:40:17.581Z,99.90
2019-05-16T17:42:47.623Z,99.90
2019-05-16T17:45:18.147Z,99.90
2019-05-16T17:47:47.093Z,99.90
2019-05-16T17:50:17.277Z,99.90
2019-05-16T17:52:47.703Z,99.90
2019-05-16T17:55:17.370Z,99.90
2019-05-16T17:57:46.339Z,99.90
2019-05-16T18:00:24.489Z,99.90
2019-05-16T18:02:46.647Z,99.90
2019-05-16T18:05:17.033Z,99.90
2019-05-16T18:07:47.515Z,99.90
2019-05-16T18:10:18.055Z,99.90
2019-05-16T18:12:48.033Z,99.90
2019-05-16T18:15:19.773Z,99.90
2019-05-16T18:17:48.239Z,99.90
2019-05-16T18:20:17.066Z,99.90
2019-05-16T18:22:47.177Z,99.90
2019-05-16T18:25:16.480Z,99.90
2019-05-16T18:27:45.139Z,99.90
2019-05-16T18:30:16.680Z,99.90
2019-05-16T18:32:44.866Z,99.90
2019-05-16T18:35:13.475Z,99.90
2019-05-16T18:37:42.017Z,99.90
2019-05-16T18:40:10.981Z,99.90
2019-05-16T18:42:39.525Z,99.90
2019-05-16T18:45:08.942Z,99.90
2019-05-16T18:47:37.989Z,99.90
2019-05-16T18:50:07.805Z,99.90
2019-05-16T18:52:37.487Z,99.90
2019-05-16T18:55:08.365Z,99.90
2019-05-16T18:57:37.834Z,99.90
2019-05-16T19:00:10.940Z,99.90
2019-05-16T19:02:41.709Z,99.90
2019-05-16T19:05:10.387Z,99.90
2019-05-16T19:07:38.860Z,99.90
2019-05-16T19:10:09.247Z,99.90
2019-05-16T19:12:37.723Z,99.90
2019-05-16T19:15:08.316Z,99.90
2019-05-16T19:17:36.868Z,99.90
2019-05-16T19:20:06.895Z,99.90
2019-05-16T19:22:37.227Z,99.90
2019-05-16T19:25:07.133Z,99.90
2019-05-16T19:27:37.045Z,99.90
2019-05-16T19:30:07.950Z,99.90
2019-05-16T19:32:37.276Z,99.90
2019-05-16T19:35:08.871Z,99.90
2019-05-16T19:37:40.408Z,99.90
2019-05-16T19:40:08.461Z,99.90
2019-05-16T19:42:37.124Z,99.90
2019-05-16T19:45:07.532Z,99.90
2019-05-16T19:47:40.325Z,99.90
2019-05-16T19:50:07.337Z,99.90
2019-05-16T19:52:36.616Z,99.90
2019-05-16T19:55:07.553Z,99.90
2019-05-16T19:57:37.391Z,99.90
2019-05-16T20:00:10.975Z,99.90
2019-05-16T20:02:39.812Z,99.90
2019-05-16T20:05:08.613Z,99.90
2019-05-16T20:07:37.530Z,99.90
2019-05-16T20:10:09.552Z,99.90
2019-05-16T20:12:37.876Z,99.90
2019-05-16T20:15:11.377Z,99.90
2019-05-16T20:17:50.886Z,99.90
2019-05-16T20:20:09.106Z,99.90
2019-05-16T20:22:37.873Z,99.90
2019-05-16T20:25:07.182Z,99.90
2019-05-16T20:27:36.771Z,99.90
2019-05-16T20:30:07.018Z,99.90
2019-05-16T20:32:37.214Z,99.90
2019-05-16T20:35:08.848Z,99.90
2019-05-16T20:37:37.656Z,99.90
2019-05-16T20:40:09.243Z,99.90
2019-05-16T20:42:37.339Z,99.90
2019-05-16T20:45:09.467Z,99.90
2019-05-16T20:47:38.017Z,99.90
2019-05-16T20:50:09.835Z,99.90
2019-05-16T20:52:38.335Z,99.90
2019-05-16T20:55:07.783Z,99.90
2019-05-16T20:57:37.757Z,99.90
2019-05-16T21:00:08.152Z,99.90
2019-05-16T21:02:37.926Z,99.90
2019-05-16T21:05:07.790Z,99.90
2019-05-16T21:07:37.599Z,99.90
2019-05-16T21:10:08.358Z,99.90
2019-05-16T21:12:40.195Z,99.90
2019-05-16T21:15:10.528Z,99.90
2019-05-16T21:17:39.359Z,99.90
2019-05-16T21:20:08.383Z,99.90
2019-05-16T21:22:37.266Z,99.90
2019-05-16T21:25:06.362Z,99.90
2019-05-16T21:27:37.551Z,99.90
2019-05-16T21:30:07.631Z,99.90
2019-05-16T21:32:36.735Z,99.90
2019-05-16T21:35:07.244Z,99.90
2019-05-16T21:37:37.453Z,99.90
2019-05-16T21:40:10.172Z,99.90
2019-05-16T21:42:38.664Z,99.90
2019-05-16T21:45:08.472Z,99.90
2019-05-16T21:47:37.152Z,99.90
2019-05-16T21:50:08.874Z,99.90
2019-05-16T21:52:37.355Z,99.90
2019-05-16T21:55:07.889Z,99.90
2019-05-16T21:57:37.816Z,99.90
2019-05-16T22:00:11.251Z,99.90
2019-05-16T22:02:39.795Z,99.90
2019-05-16T22:05:08.782Z,99.90
2019-05-16T22:07:37.258Z,99.90
2019-05-16T22:10:07.445Z,99.90
2019-05-16T22:12:38.216Z,99.90
2019-05-16T22:15:06.786Z,99.90
2019-05-16T22:17:36.629Z,99.90
2019-05-16T22:20:07.983Z,99.90
2019-05-16T22:22:38.262Z,99.90
2019-05-16T22:25:07.832Z,99.90
2019-05-16T22:27:36.444Z,99.90
2019-05-16T22:30:13.223Z,99.90
2019-05-16T22:32:41.813Z,99.90
2019-05-16T22:35:11.041Z,99.90
2019-05-16T22:37:49.335Z,99.90
2019-05-16T22:40:09.884Z,99.90
2019-05-16T22:42:38.369Z,99.90
2019-05-16T22:45:09.508Z,99.90
2019-05-16T22:47:38.003Z,99.90
2019-05-16T22:50:07.922Z,99.90
2019-05-16T22:52:36.834Z,99.90
2019-05-16T22:55:07.430Z,99.90
2019-05-16T22:57:36.305Z,99.90
2019-05-16T23:00:10.142Z,99.90
2019-05-16T23:02:38.712Z,99.90
2019-05-16T23:05:07.625Z,99.90
2019-05-16T23:07:36.748Z,99.90
2019-05-16T23:10:07.276Z,99.90
2019-05-16T23:12:37.099Z,99.90
2019-05-16T23:15:07.004Z,99.90
2019-05-16T23:17:37.529Z,99.90
2019-05-16T23:20:07.107Z,99.90
2019-05-16T23:22:36.804Z,99.90
2019-05-16T23:25:06.655Z,99.90
2019-05-16T23:27:36.814Z,99.90
2019-05-16T23:30:09.401Z,99.90
2019-05-16T23:32:37.877Z,99.90
2019-05-16T23:35:07.385Z,99.90
2019-05-16T23:37:37.032Z,99.90
2019-05-16T23:40:06.453Z,99.90
2019-05-16T23:42:37.087Z,99.90
2019-05-16T23:45:09.093Z,99.90
2019-05-16T23:47:37.806Z,99.90
2019-05-16T23:50:07.747Z,99.90
2019-05-16T23:52:36.915Z,99.90
2019-05-16T23:55:08.311Z,99.90
2019-05-16T23:57:37.708Z,99.90
